createdAt,value
2018-09-11T00:00:07.380Z,1016.22
2018-09-11T00:01:07.404Z,1016.24
2018-09-11T00:02:07.428Z,1016.22
2018-09-11T00:03:07.452Z,1016.24
2018-09-11T00:04:07.477Z,1016.22
2018-09-11T00:05:07.500Z,1016.23
2018-09-11T00:06:07.523Z,1016.19
2018-09-11T00:07:07.548Z,1016.22
2018-09-11T00:08:07.572Z,1016.29
2018-09-11T00:09:07.595Z,1016.27
2018-09-11T00:10:07.619Z,1016.31
2018-09-11T00:11:07.643Z,1016.32
2018-09-11T00:12:07.670Z,1016.32
2018-09-11T00:13:07.690Z,1016.26
2018-09-11T00:14:07.714Z,1016.29
2018-09-11T00:16:07.762Z,1016.33
2018-09-11T00:17:07.786Z,1016.3
2018-09-11T00:18:07.809Z,1016.32
2018-09-11T00:19:07.834Z,1016.34
2018-09-11T00:20:07.857Z,1016.37
2018-09-11T00:21:07.881Z,1016.42
2018-09-11T00:22:07.906Z,1016.39
2018-09-11T00:23:07.988Z,1016.4
2018-09-11T00:24:07.951Z,1016.44
2018-09-11T00:25:07.978Z,1016.47
2018-09-11T00:26:08.001Z,1016.51
2018-09-11T00:27:08.032Z,1016.48
2018-09-11T00:28:08.049Z,1016.44
2018-09-11T00:29:08.074Z,1016.43
2018-09-11T00:30:08.096Z,1016.43
2018-09-11T00:32:08.144Z,1016.45
2018-09-11T00:33:08.167Z,1016.48
2018-09-11T00:34:08.192Z,1016.51
2018-09-11T00:35:08.216Z,1016.59
2018-09-11T00:36:08.242Z,1016.55
2018-09-11T00:37:08.263Z,1016.54
2018-09-11T00:38:08.288Z,1016.51
2018-09-11T00:39:08.311Z,1016.51
2018-09-11T00:40:08.335Z,1016.48
2018-09-11T00:41:08.359Z,1016.44
2018-09-11T00:42:08.381Z,1016.46
2018-09-11T00:43:08.443Z,1016.39
2018-09-11T00:44:08.430Z,1016.36
2018-09-11T00:45:08.459Z,1016.34
2018-09-11T00:46:08.476Z,1016.35
2018-09-11T00:48:08.524Z,1016.3
2018-09-11T00:49:08.549Z,1016.29
2018-09-11T00:50:08.575Z,1016.3
2018-09-11T00:51:08.597Z,1016.21
2018-09-11T00:52:08.619Z,1016.22
2018-09-11T00:53:08.643Z,1016.24
2018-09-11T00:54:08.667Z,1016.23
2018-09-11T00:55:08.692Z,1016.22
2018-09-11T00:56:08.717Z,1016.25
2018-09-11T00:57:08.737Z,1016.27
2018-09-11T00:58:08.762Z,1016.26
2018-09-11T00:59:08.788Z,1016.25
2018-09-11T01:00:08.811Z,1016.23
2018-09-11T01:01:08.838Z,1016.21
2018-09-11T01:03:08.883Z,1016.22
2018-09-11T01:04:08.905Z,1016.19
2018-09-11T01:05:08.929Z,1016.18
2018-09-11T01:06:08.952Z,1016.21
2018-09-11T01:07:08.978Z,1016.22
2018-09-11T01:08:09.001Z,1016.21
2018-09-11T01:09:09.027Z,1016.24
2018-09-11T01:10:09.102Z,1016.22
2018-09-11T01:11:09.071Z,1016.26
2018-09-11T01:12:09.096Z,1016.26
2018-09-11T01:13:09.120Z,1016.26
2018-09-11T01:14:09.144Z,1016.29
2018-09-11T01:15:09.170Z,1016.29
2018-09-11T01:16:09.191Z,1016.3
2018-09-11T01:17:09.215Z,1016.26
2018-09-11T01:18:09.240Z,1016.27
2018-09-11T01:19:09.261Z,1016.26
2018-09-11T01:20:09.285Z,1016.23
2018-09-11T01:21:09.310Z,1016.24
2018-09-11T01:22:09.333Z,1016.27
2018-09-11T01:23:09.356Z,1016.27
2018-09-11T01:24:09.381Z,1016.32
2018-09-11T01:25:09.407Z,1016.3
2018-09-11T01:26:09.428Z,1016.31
2018-09-11T01:27:09.452Z,1016.36
2018-09-11T01:28:09.477Z,1016.37
2018-09-11T01:29:09.501Z,1016.4
2018-09-11T01:30:09.523Z,1016.36
2018-09-11T01:31:09.549Z,1016.34
2018-09-11T01:32:09.571Z,1016.33
2018-09-11T01:33:09.594Z,1016.33
2018-09-11T01:35:09.641Z,1016.27
2018-09-11T01:36:09.666Z,1016.27
2018-09-11T01:37:09.690Z,1016.24
2018-09-11T01:38:09.713Z,1016.26
2018-09-11T01:39:09.739Z,1016.26
2018-09-11T01:40:09.918Z,1016.25
2018-09-11T01:41:09.784Z,1016.25
2018-09-11T01:42:09.806Z,1016.25
2018-09-11T01:43:09.831Z,1016.26
2018-09-11T01:44:09.858Z,1016.22
2018-09-11T01:45:09.879Z,1016.19
2018-09-11T01:46:09.903Z,1016.18
2018-09-11T01:47:09.927Z,1016.14
2018-09-11T01:48:09.950Z,1016.13
2018-09-11T01:49:09.974Z,1016.15
2018-09-11T01:51:10.022Z,1016.12
2018-09-11T01:52:10.053Z,1016.1
2018-09-11T01:53:10.069Z,1016.05
2018-09-11T01:54:10.092Z,1016.07
2018-09-11T01:55:10.116Z,1016.09
2018-09-11T01:56:10.138Z,1016.11
2018-09-11T01:57:10.175Z,1016.09
2018-09-11T01:58:10.188Z,1016.04
2018-09-11T01:59:10.210Z,1016.02
2018-09-11T02:00:10.235Z,1016.04
2018-09-11T02:01:10.258Z,1016.04
2018-09-11T02:02:10.282Z,1016
2018-09-11T02:03:10.305Z,1016.01
2018-09-11T02:04:10.329Z,1016.03
2018-09-11T02:05:10.353Z,1016.02
2018-09-11T02:07:10.400Z,1016.04
2018-09-11T02:08:10.423Z,1016.05
2018-09-11T02:09:10.447Z,1016.02
2018-09-11T02:10:10.469Z,1016.04
2018-09-11T02:11:10.493Z,1016.08
2018-09-11T02:12:10.518Z,1016.11
2018-09-11T02:13:10.544Z,1016.14
2018-09-11T02:14:10.566Z,1016.13
2018-09-11T02:15:10.589Z,1016.14
2018-09-11T02:16:10.613Z,1016.14
2018-09-11T02:17:10.636Z,1016.12
2018-09-11T02:18:10.660Z,1016.14
2018-09-11T02:19:10.684Z,1016.13
2018-09-11T02:20:10.707Z,1016.14
2018-09-11T02:21:10.731Z,1016.14
2018-09-11T02:23:10.778Z,1016.12
2018-09-11T02:24:10.813Z,1016.07
2018-09-11T02:25:10.826Z,1016.09
2018-09-11T02:26:10.850Z,1016.1
2018-09-11T02:27:10.877Z,1016.1
2018-09-11T02:28:10.896Z,1016.06
2018-09-11T02:29:10.921Z,1016.1
2018-09-11T02:30:10.945Z,1016.03
2018-09-11T02:31:11.018Z,1016.04
2018-09-11T02:32:10.991Z,1016.06
2018-09-11T02:33:11.016Z,1016.09
2018-09-11T02:34:11.039Z,1016.09
2018-09-11T02:35:11.063Z,1016.09
2018-09-11T02:36:11.087Z,1016.07
2018-09-11T02:38:11.135Z,1016.04
2018-09-11T02:39:11.157Z,1016
2018-09-11T02:40:11.181Z,1015.99
2018-09-11T02:41:11.206Z,1016.03
2018-09-11T02:42:11.230Z,1016.04
2018-09-11T02:43:11.252Z,1016
2018-09-11T02:44:11.276Z,1016
2018-09-11T02:45:11.303Z,1016.05
2018-09-11T02:46:11.323Z,1016.09
2018-09-11T02:47:11.350Z,1016.11
2018-09-11T02:48:11.373Z,1016.1
2018-09-11T02:49:11.399Z,1016.07
2018-09-11T02:50:11.416Z,1016.04
2018-09-11T02:51:11.441Z,1016.05
2018-09-11T02:52:11.465Z,1016.04
2018-09-11T02:53:11.488Z,1016.09
2018-09-11T02:54:11.518Z,1016.07
2018-09-11T02:55:11.539Z,1016.09
2018-09-11T02:56:11.561Z,1016.09
2018-09-11T02:57:11.582Z,1016.13
2018-09-11T02:58:11.616Z,1016.12
2018-09-11T02:59:11.628Z,1016.14
2018-09-11T03:00:11.653Z,1016.12
2018-09-11T03:01:11.675Z,1016.11
2018-09-11T03:02:11.700Z,1016.1
2018-09-11T03:03:11.727Z,1016.11
2018-09-11T03:04:11.748Z,1016.14
2018-09-11T03:05:11.771Z,1016.19
2018-09-11T03:06:11.793Z,1016.15
2018-09-11T03:07:11.822Z,1016.17
2018-09-11T03:08:11.841Z,1016.2
2018-09-11T03:10:11.888Z,1016.24
2018-09-11T03:11:11.913Z,1016.22
2018-09-11T03:12:11.934Z,1016.22
2018-09-11T03:13:11.962Z,1016.2
2018-09-11T03:14:11.982Z,1016.21
2018-09-11T03:15:12.006Z,1016.2
2018-09-11T03:16:12.029Z,1016.2
2018-09-11T03:17:12.051Z,1016.2
2018-09-11T03:18:12.077Z,1016.21
2018-09-11T03:19:12.100Z,1016.21
2018-09-11T03:20:12.123Z,1016.17
2018-09-11T03:21:12.145Z,1016.24
2018-09-11T03:22:12.171Z,1016.19
2018-09-11T03:23:12.193Z,1016.24
2018-09-11T03:24:12.217Z,1016.24
2018-09-11T03:26:12.266Z,1016.28
2018-09-11T03:27:12.287Z,1016.29
2018-09-11T03:28:12.311Z,1016.31
2018-09-11T03:29:12.334Z,1016.31
2018-09-11T03:30:12.358Z,1016.3
2018-09-11T03:31:12.381Z,1016.34
2018-09-11T03:32:12.410Z,1016.34
2018-09-11T03:33:12.428Z,1016.36
2018-09-11T03:34:12.451Z,1016.39
2018-09-11T03:35:12.476Z,1016.39
2018-09-11T03:36:12.499Z,1016.39
2018-09-11T03:37:12.523Z,1016.4
2018-09-11T03:38:12.544Z,1016.39
2018-09-11T03:39:12.569Z,1016.39
2018-09-11T03:40:12.593Z,1016.36
2018-09-11T03:42:12.639Z,1016.37
2018-09-11T03:43:12.664Z,1016.35
2018-09-11T03:44:12.700Z,1016.38
2018-09-11T03:45:12.710Z,1016.36
2018-09-11T03:46:12.740Z,1016.35
2018-09-11T03:47:12.757Z,1016.33
2018-09-11T03:48:12.781Z,1016.31
2018-09-11T03:49:12.807Z,1016.27
2018-09-11T03:50:12.827Z,1016.33
2018-09-11T03:51:12.852Z,1016.29
2018-09-11T03:52:12.874Z,1016.32
2018-09-11T03:53:12.898Z,1016.3
2018-09-11T03:54:12.920Z,1016.28
2018-09-11T03:55:12.945Z,1016.29
2018-09-11T03:56:12.969Z,1016.34
2018-09-11T03:58:13.014Z,1016.33
2018-09-11T03:59:13.096Z,1016.31
2018-09-11T04:00:13.063Z,1016.32
2018-09-11T04:01:13.086Z,1016.32
2018-09-11T04:02:13.110Z,1016.35
2018-09-11T04:03:13.131Z,1016.3
2018-09-11T04:04:13.156Z,1016.33
2018-09-11T04:05:13.189Z,1016.28
2018-09-11T04:06:13.252Z,1016.32
2018-09-11T04:07:13.226Z,1016.31
2018-09-11T04:08:13.250Z,1016.34
2018-09-11T04:09:13.273Z,1016.33
2018-09-11T04:10:13.297Z,1016.33
2018-09-11T04:11:13.420Z,1016.3
2018-09-11T04:13:13.368Z,1016.33
2018-09-11T04:14:13.391Z,1016.39
2018-09-11T04:15:13.413Z,1016.39
2018-09-11T04:16:13.439Z,1016.36
2018-09-11T04:17:13.461Z,1016.41
2018-09-11T04:18:13.484Z,1016.37
2018-09-11T04:19:13.507Z,1016.42
2018-09-11T04:20:13.533Z,1016.42
2018-09-11T04:21:13.553Z,1016.38
2018-09-11T04:22:13.586Z,1016.4
2018-09-11T04:23:13.602Z,1016.38
2018-09-11T04:24:13.625Z,1016.39
2018-09-11T04:25:13.648Z,1016.36
2018-09-11T04:26:13.672Z,1016.39
2018-09-11T04:27:13.696Z,1016.39
2018-09-11T04:28:13.719Z,1016.39
2018-09-11T04:29:13.741Z,1016.41
2018-09-11T04:30:13.764Z,1016.36
2018-09-11T04:31:13.789Z,1016.36
2018-09-11T04:32:13.813Z,1016.34
2018-09-11T04:33:13.834Z,1016.4
2018-09-11T04:34:13.859Z,1016.38
2018-09-11T04:35:13.883Z,1016.36
2018-09-11T04:36:13.938Z,1016.36
2018-09-11T04:37:13.928Z,1016.38
2018-09-11T04:38:13.952Z,1016.36
2018-09-11T04:39:13.976Z,1016.3
2018-09-11T04:40:13.999Z,1016.29
2018-09-11T04:41:14.023Z,1016.3
2018-09-11T04:42:14.048Z,1016.28
2018-09-11T04:43:14.071Z,1016.28
2018-09-11T04:45:14.116Z,1016.3
2018-09-11T04:46:14.140Z,1016.28
2018-09-11T04:47:14.162Z,1016.27
2018-09-11T04:48:14.185Z,1016.28
2018-09-11T04:49:14.210Z,1016.23
2018-09-11T04:50:14.234Z,1016.27
2018-09-11T04:51:14.254Z,1016.26
2018-09-11T04:52:14.279Z,1016.24
2018-09-11T04:53:14.304Z,1016.25
2018-09-11T04:54:14.326Z,1016.21
2018-09-11T04:55:14.350Z,1016.21
2018-09-11T04:56:14.446Z,1016.24
2018-09-11T04:57:14.396Z,1016.22
2018-09-11T04:58:14.419Z,1016.19
2018-09-11T04:59:14.443Z,1016.22
2018-09-11T05:01:14.490Z,1016.24
2018-09-11T05:02:14.516Z,1016.2
2018-09-11T05:03:14.536Z,1016.17
2018-09-11T05:04:14.608Z,1016.13
2018-09-11T05:05:14.582Z,1016.16
2018-09-11T05:06:14.606Z,1016.13
2018-09-11T05:07:14.629Z,1016.15
2018-09-11T05:08:14.653Z,1016.16
2018-09-11T05:09:14.675Z,1016.14
2018-09-11T05:10:14.698Z,1016.13
2018-09-11T05:11:14.723Z,1016.13
2018-09-11T05:12:14.747Z,1016.11
2018-09-11T05:13:14.769Z,1016.11
2018-09-11T05:14:14.795Z,1016.14
2018-09-11T05:15:14.819Z,1016.1
2018-09-11T05:17:14.863Z,1016.13
2018-09-11T05:18:14.891Z,1016.15
2018-09-11T05:19:14.996Z,1016.14
2018-09-11T05:20:14.933Z,1016.15
2018-09-11T05:21:14.957Z,1016.16
2018-09-11T05:22:14.981Z,1016.16
2018-09-11T05:23:15.003Z,1016.13
2018-09-11T05:24:15.027Z,1016.12
2018-09-11T05:25:15.054Z,1016.11
2018-09-11T05:26:15.074Z,1016.12
2018-09-11T05:27:15.101Z,1016.08
2018-09-11T05:28:15.119Z,1016.09
2018-09-11T05:29:15.147Z,1016.06
2018-09-11T05:30:15.166Z,1016.08
2018-09-11T05:31:15.191Z,1016.07
2018-09-11T05:33:15.237Z,1016.13
2018-09-11T05:34:15.263Z,1016.11
2018-09-11T05:35:15.284Z,1016.12
2018-09-11T05:36:15.307Z,1016.12
2018-09-11T05:37:15.331Z,1016.17
2018-09-11T05:38:15.354Z,1016.15
2018-09-11T05:39:15.377Z,1016.14
2018-09-11T05:40:15.407Z,1016.13
2018-09-11T05:41:15.425Z,1016.12
2018-09-11T05:42:15.446Z,1016.15
2018-09-11T05:43:15.472Z,1016.13
2018-09-11T05:44:15.497Z,1016.15
2018-09-11T05:45:15.518Z,1016.15
2018-09-11T05:46:15.541Z,1016.14
2018-09-11T05:48:15.590Z,1016.2
2018-09-11T05:49:15.612Z,1016.19
2018-09-11T05:50:15.635Z,1016.21
2018-09-11T05:51:15.659Z,1016.22
2018-09-11T05:52:15.687Z,1016.2
2018-09-11T05:53:15.706Z,1016.23
2018-09-11T05:54:15.729Z,1016.23
2018-09-11T05:55:15.754Z,1016.25
2018-09-11T05:56:15.777Z,1016.24
2018-09-11T05:57:15.800Z,1016.22
2018-09-11T05:58:15.873Z,1016.24
2018-09-11T05:59:15.847Z,1016.2
2018-09-11T06:00:15.871Z,1016.22
2018-09-11T06:01:15.896Z,1016.22
2018-09-11T06:02:15.919Z,1016.19
2018-09-11T06:03:15.942Z,1016.2
2018-09-11T06:04:15.964Z,1016.21
2018-09-11T06:05:15.990Z,1016.21
2018-09-11T06:06:16.012Z,1016.23
2018-09-11T06:07:16.035Z,1016.25
2018-09-11T06:08:16.064Z,1016.25
2018-09-11T06:09:16.081Z,1016.24
2018-09-11T06:10:16.105Z,1016.25
2018-09-11T06:11:16.129Z,1016.23
2018-09-11T06:12:16.153Z,1016.27
2018-09-11T06:13:16.177Z,1016.25
2018-09-11T06:14:16.201Z,1016.25
2018-09-11T06:15:16.223Z,1016.28
2018-09-11T06:16:16.288Z,1016.28
2018-09-11T06:17:16.271Z,1016.3
2018-09-11T06:18:16.294Z,1016.25
2018-09-11T06:20:16.346Z,1016.27
2018-09-11T06:21:16.366Z,1016.27
2018-09-11T06:22:16.390Z,1016.29
2018-09-11T06:23:16.412Z,1016.29
2018-09-11T06:24:16.436Z,1016.31
2018-09-11T06:25:16.460Z,1016.29
2018-09-11T06:26:16.483Z,1016.29
2018-09-11T06:27:16.506Z,1016.25
2018-09-11T06:28:16.531Z,1016.25
2018-09-11T06:29:16.656Z,1016.22
2018-09-11T06:30:16.578Z,1016.26
2018-09-11T06:31:16.601Z,1016.24
2018-09-11T06:32:16.625Z,1016.22
2018-09-11T06:33:16.648Z,1016.22
2018-09-11T06:34:16.672Z,1016.26
2018-09-11T06:36:16.720Z,1016.23
2018-09-11T06:37:16.743Z,1016.24
2018-09-11T06:38:16.770Z,1016.22
2018-09-11T06:39:16.792Z,1016.26
2018-09-11T06:40:16.814Z,1016.26
2018-09-11T06:41:16.917Z,1016.28
2018-09-11T06:42:16.861Z,1016.22
2018-09-11T06:43:16.886Z,1016.26
2018-09-11T06:44:16.908Z,1016.26
2018-09-11T06:45:16.936Z,1016.28
2018-09-11T06:46:16.957Z,1016.25
2018-09-11T06:47:16.984Z,1016.25
2018-09-11T06:48:17.004Z,1016.25
2018-09-11T06:49:17.031Z,1016.25
2018-09-11T06:50:17.051Z,1016.22
2018-09-11T06:52:17.115Z,1016.22
2018-09-11T06:53:17.123Z,1016.22
2018-09-11T06:54:17.147Z,1016.2
2018-09-11T06:55:17.170Z,1016.2
2018-09-11T06:56:17.198Z,1016.19
2018-09-11T06:57:17.219Z,1016.18
2018-09-11T06:58:17.243Z,1016.13
2018-09-11T06:59:17.269Z,1016.15
2018-09-11T07:00:17.291Z,1016.14
2018-09-11T07:01:17.416Z,1016.13
2018-09-11T07:02:17.380Z,1016.15
2018-09-11T07:03:17.362Z,1016.11
2018-09-11T07:04:17.391Z,1016.1
2018-09-11T07:05:17.410Z,1016.14
2018-09-11T07:06:17.434Z,1016.1
2018-09-11T07:08:17.483Z,1016.05
2018-09-11T07:09:17.510Z,1016.04
2018-09-11T07:10:17.530Z,1016.04
2018-09-11T07:11:17.555Z,1016.04
2018-09-11T07:12:17.578Z,1015.99
2018-09-11T07:13:17.603Z,1016.01
2018-09-11T07:14:17.627Z,1016.06
2018-09-11T07:15:17.651Z,1016.08
2018-09-11T07:16:17.675Z,1016.08
2018-09-11T07:17:17.698Z,1016.06
2018-09-11T07:18:17.722Z,1016
2018-09-11T07:19:17.748Z,1016.04
2018-09-11T07:20:18.136Z,1016.12
2018-09-11T07:21:17.797Z,1016.09
2018-09-11T07:23:17.846Z,1016.21
2018-09-11T07:24:17.881Z,1016.18
2018-09-11T07:25:17.896Z,1016.18
2018-09-11T07:26:17.928Z,1016.12
2018-09-11T07:27:17.950Z,1016.11
2018-09-11T07:28:17.969Z,1016.19
2018-09-11T07:29:17.995Z,1016.16
2018-09-11T07:30:18.054Z,1016.16
2018-09-11T07:31:18.067Z,1016.27
2018-09-11T07:32:18.082Z,1016.24
2018-09-11T07:33:18.095Z,1016.23
2018-09-11T07:34:18.122Z,1016.21
2018-09-11T07:35:18.146Z,1016.16
2018-09-11T07:36:18.227Z,1016.19
2018-09-11T07:37:18.197Z,1016.14
2018-09-11T07:38:18.224Z,1016.26
2018-09-11T07:39:18.249Z,1016.2
2018-09-11T07:40:18.276Z,1016.38
2018-09-11T07:41:18.302Z,1016.44
2018-09-11T07:42:18.328Z,1016.41
2018-09-11T07:43:18.376Z,1016.41
2018-09-11T07:44:18.382Z,1016.34
2018-09-11T07:45:18.411Z,1016.34
2018-09-11T07:46:18.443Z,1016.39
2018-09-11T07:47:18.465Z,1016.23
2018-09-11T07:48:18.492Z,1016.21
2018-09-11T07:49:18.523Z,1016.28
2018-09-11T07:50:18.549Z,1016.19
2018-09-11T07:51:18.578Z,1016.14
2018-09-11T07:52:18.610Z,1016.04
2018-09-11T07:53:18.636Z,1015.99
2018-09-11T07:55:18.696Z,1015.99
2018-09-11T07:56:18.724Z,1015.98
2018-09-11T07:57:18.752Z,1016.02
2018-09-11T07:58:18.783Z,1016
2018-09-11T07:59:18.815Z,1016
2018-09-11T08:00:18.841Z,1016.04
2018-09-11T08:01:18.882Z,1016
2018-09-11T08:02:18.898Z,1016.05
2018-09-11T08:03:18.932Z,1016.04
2018-09-11T08:04:19.058Z,1016.11
2018-09-11T08:05:18.992Z,1016.1
2018-09-11T08:06:19.016Z,1016.06
2018-09-11T08:07:19.050Z,1016.06
2018-09-11T08:08:19.076Z,1016.02
2018-09-11T08:09:19.106Z,1016.03
2018-09-11T08:11:19.168Z,1016.01
2018-09-11T08:12:19.196Z,1015.99
2018-09-11T08:13:19.227Z,1016
2018-09-11T08:14:19.255Z,1016.01
2018-09-11T08:15:19.283Z,1016.03
2018-09-11T08:16:19.315Z,1016.12
2018-09-11T08:17:19.344Z,1016.16
2018-09-11T08:18:19.397Z,1016.09
2018-09-11T08:19:19.401Z,1016.13
2018-09-11T08:20:19.430Z,1016.11
2018-09-11T08:21:19.461Z,1016.13
2018-09-11T08:22:19.493Z,1016.15
2018-09-11T08:23:19.519Z,1016.14
2018-09-11T08:24:19.547Z,1016.07
2018-09-11T08:25:19.578Z,1016.05
2018-09-11T08:27:19.636Z,1016.02
2018-09-11T08:28:19.667Z,1015.94
2018-09-11T08:29:19.722Z,1015.97
2018-09-11T08:30:19.725Z,1016.01
2018-09-11T08:31:19.755Z,1015.99
2018-09-11T08:32:19.785Z,1015.92
2018-09-11T08:33:19.815Z,1015.98
2018-09-11T08:34:19.844Z,1015.96
2018-09-11T08:35:19.878Z,1015.95
2018-09-11T08:36:19.956Z,1015.94
2018-09-11T08:37:19.936Z,1015.92
2018-09-11T08:38:19.967Z,1015.97
2018-09-11T08:39:19.997Z,1015.92
2018-09-11T08:40:20.028Z,1015.93
2018-09-11T08:41:20.059Z,1015.9
2018-09-11T08:43:20.119Z,1015.91
2018-09-11T08:44:20.150Z,1015.93
2018-09-11T08:45:20.180Z,1015.95
2018-09-11T08:46:20.211Z,1015.96
2018-09-11T08:47:20.241Z,1015.9
2018-09-11T08:48:20.271Z,1015.92
2018-09-11T08:49:20.301Z,1015.88
2018-09-11T08:50:20.333Z,1015.81
2018-09-11T08:51:20.364Z,1015.8
2018-09-11T08:52:20.401Z,1015.79
2018-09-11T08:53:20.424Z,1015.82
2018-09-11T08:54:20.456Z,1015.73
2018-09-11T08:55:20.487Z,1015.73
2018-09-11T08:56:20.518Z,1015.68
2018-09-11T08:58:20.579Z,1015.56
2018-09-11T08:59:20.610Z,1015.65
2018-09-11T09:00:20.642Z,1015.57
2018-09-11T09:01:20.670Z,1015.56
2018-09-11T09:02:20.702Z,1015.57
2018-09-11T09:03:20.732Z,1015.58
2018-09-11T09:04:20.762Z,1015.58
2018-09-11T09:05:20.793Z,1015.57
2018-09-11T09:06:20.823Z,1015.56
2018-09-11T09:07:20.855Z,1015.56
2018-09-11T09:08:20.883Z,1015.58
2018-09-11T09:09:20.913Z,1015.65
2018-09-11T09:10:20.943Z,1015.55
2018-09-11T09:11:20.973Z,1015.5
2018-09-11T09:12:21.002Z,1015.63
2018-09-11T09:13:21.033Z,1015.62
2018-09-11T09:14:21.062Z,1015.61
2018-09-11T09:15:21.092Z,1015.6
2018-09-11T09:16:21.122Z,1015.58
2018-09-11T09:17:21.151Z,1015.58
2018-09-11T09:18:21.182Z,1015.57
2018-09-11T09:19:21.212Z,1015.54
2018-09-11T09:20:21.241Z,1015.5
2018-09-11T09:21:21.271Z,1015.52
2018-09-11T09:22:21.299Z,1015.46
2018-09-11T09:23:21.330Z,1015.5
2018-09-11T09:24:21.360Z,1015.45
2018-09-11T09:25:21.388Z,1015.44
2018-09-11T09:26:21.419Z,1015.44
2018-09-11T09:27:21.507Z,1015.44
2018-09-11T09:28:21.481Z,1015.48
2018-09-11T09:30:21.538Z,1015.51
2018-09-11T09:31:21.567Z,1015.58
2018-09-11T09:32:21.599Z,1015.61
2018-09-11T09:33:21.625Z,1015.59
2018-09-11T09:34:21.655Z,1015.52
2018-09-11T09:35:21.687Z,1015.52
2018-09-11T09:36:21.717Z,1015.55
2018-09-11T09:37:21.743Z,1015.47
2018-09-11T09:38:21.774Z,1015.43
2018-09-11T09:39:21.803Z,1015.41
2018-09-11T09:40:21.835Z,1015.44
2018-09-11T09:41:21.863Z,1015.37
2018-09-11T09:42:21.890Z,1015.39
2018-09-11T09:43:21.918Z,1015.31
2018-09-11T09:44:21.947Z,1015.31
2018-09-11T09:46:22.006Z,1015.25
2018-09-11T09:47:22.033Z,1015.16
2018-09-11T09:48:22.063Z,1015.08
2018-09-11T09:49:22.092Z,1015.08
2018-09-11T09:50:22.121Z,1015.02
2018-09-11T09:51:22.149Z,1015.02
2018-09-11T09:52:22.179Z,1015.04
2018-09-11T09:53:22.207Z,1015.04
2018-09-11T09:54:22.235Z,1015.07
2018-09-11T09:55:22.264Z,1015.03
2018-09-11T09:56:22.292Z,1015.07
2018-09-11T09:57:22.321Z,1015.04
2018-09-11T09:58:22.351Z,1015.13
2018-09-11T09:59:22.377Z,1015.03
2018-09-11T10:00:22.406Z,1015.11
2018-09-11T10:02:22.461Z,1015.11
2018-09-11T10:03:22.489Z,1015.02
2018-09-11T10:04:22.518Z,1015.02
2018-09-11T10:05:22.545Z,1015.03
2018-09-11T10:06:22.574Z,1015.1
2018-09-11T10:07:22.603Z,1015.11
2018-09-11T10:08:22.630Z,1015.11
2018-09-11T10:09:22.657Z,1015.14
2018-09-11T10:10:22.685Z,1015.19
2018-09-11T10:11:22.714Z,1015.16
2018-09-11T10:12:22.739Z,1015.2
2018-09-11T10:13:22.769Z,1015.19
2018-09-11T10:14:22.798Z,1015.19
2018-09-11T10:15:22.826Z,1015.17
2018-09-11T10:16:22.854Z,1015.19
2018-09-11T10:18:22.912Z,1015.12
2018-09-11T10:19:22.937Z,1015.09
2018-09-11T10:20:22.964Z,1015.12
2018-09-11T10:21:22.993Z,1015.1
2018-09-11T10:22:23.021Z,1015.08
2018-09-11T10:23:23.048Z,1015.12
2018-09-11T10:24:23.076Z,1015.06
2018-09-11T10:25:23.105Z,1015.08
2018-09-11T10:26:23.133Z,1015.02
2018-09-11T10:27:23.168Z,1014.96
2018-09-11T10:28:23.187Z,1014.94
2018-09-11T10:29:23.217Z,1014.97
2018-09-11T10:30:23.245Z,1014.91
2018-09-11T10:31:23.273Z,1015.02
2018-09-11T10:33:23.330Z,1015
2018-09-11T10:34:23.459Z,1014.96
2018-09-11T10:35:23.386Z,1014.96
2018-09-11T10:36:23.415Z,1014.94
2018-09-11T10:37:23.446Z,1014.96
2018-09-11T10:38:23.471Z,1014.94
2018-09-11T10:39:23.535Z,1015.01
2018-09-11T10:40:23.528Z,1015.04
2018-09-11T10:41:23.554Z,1014.96
2018-09-11T10:42:23.586Z,1014.93
2018-09-11T10:43:23.612Z,1014.89
2018-09-11T10:44:23.640Z,1014.88
2018-09-11T10:45:23.670Z,1014.91
2018-09-11T10:46:23.696Z,1014.95
2018-09-11T10:47:23.774Z,1014.92
2018-09-11T10:48:23.753Z,1014.93
2018-09-11T10:49:23.780Z,1014.88
2018-09-11T10:50:23.808Z,1014.93
2018-09-11T10:51:23.835Z,1014.87
2018-09-11T10:52:23.866Z,1014.98
2018-09-11T10:53:23.891Z,1014.91
2018-09-11T10:54:23.922Z,1014.98
2018-09-11T10:55:23.949Z,1014.89
2018-09-11T10:56:23.981Z,1014.91
2018-09-11T10:57:24.003Z,1014.89
2018-09-11T10:58:24.048Z,1014.81
2018-09-11T10:59:24.059Z,1014.88
2018-09-11T11:00:24.110Z,1014.85
2018-09-11T11:01:24.114Z,1014.87
2018-09-11T11:02:24.141Z,1014.74
2018-09-11T11:03:24.169Z,1014.86
2018-09-11T11:05:24.224Z,1014.82
2018-09-11T11:06:24.257Z,1014.81
2018-09-11T11:07:24.279Z,1014.79
2018-09-11T11:08:24.307Z,1014.81
2018-09-11T11:09:24.336Z,1014.79
2018-09-11T11:10:24.363Z,1014.73
2018-09-11T11:11:24.391Z,1014.78
2018-09-11T11:12:24.420Z,1014.77
2018-09-11T11:13:24.446Z,1014.8
2018-09-11T11:14:24.471Z,1014.81
2018-09-11T11:15:24.502Z,1014.86
2018-09-11T11:16:24.528Z,1014.8
2018-09-11T11:17:24.556Z,1014.78
2018-09-11T11:18:24.583Z,1014.73
2018-09-11T11:19:24.610Z,1014.77
2018-09-11T11:21:24.666Z,1014.83
2018-09-11T11:22:24.694Z,1014.78
2018-09-11T11:23:24.721Z,1014.83
2018-09-11T11:24:24.748Z,1014.8
2018-09-11T11:25:24.776Z,1014.83
2018-09-11T11:26:24.805Z,1014.8
2018-09-11T11:27:24.832Z,1014.81
2018-09-11T11:28:24.859Z,1014.82
2018-09-11T11:29:24.886Z,1014.79
2018-09-11T11:30:24.918Z,1014.8
2018-09-11T11:31:24.942Z,1014.77
2018-09-11T11:32:24.970Z,1014.75
2018-09-11T11:33:25.000Z,1014.78
2018-09-11T11:34:25.028Z,1014.68
2018-09-11T11:35:25.052Z,1014.76
2018-09-11T11:37:25.260Z,1014.76
2018-09-11T11:38:25.135Z,1014.73
2018-09-11T11:39:25.163Z,1014.75
2018-09-11T11:40:25.189Z,1014.67
2018-09-11T11:41:25.218Z,1014.68
2018-09-11T11:42:25.361Z,1014.7
2018-09-11T11:43:25.273Z,1014.78
2018-09-11T11:44:25.300Z,1014.75
2018-09-11T11:45:25.331Z,1014.71
2018-09-11T11:46:25.356Z,1014.72
2018-09-11T11:47:25.390Z,1014.76
2018-09-11T11:48:25.410Z,1014.72
2018-09-11T11:49:25.440Z,1014.72
2018-09-11T11:50:25.465Z,1014.72
2018-09-11T11:51:25.493Z,1014.71
2018-09-11T11:53:25.549Z,1014.72
2018-09-11T11:54:25.576Z,1014.7
2018-09-11T11:55:25.691Z,1014.69
2018-09-11T11:56:25.631Z,1014.71
2018-09-11T11:57:25.659Z,1014.67
2018-09-11T11:58:25.686Z,1014.7
2018-09-11T11:59:25.713Z,1014.72
2018-09-11T12:00:25.742Z,1014.74
2018-09-11T12:01:25.844Z,1014.84
2018-09-11T12:02:25.795Z,1014.73
2018-09-11T12:03:25.823Z,1014.72
2018-09-11T12:04:25.851Z,1014.73
2018-09-11T12:05:25.880Z,1014.68
2018-09-11T12:06:25.917Z,1014.69
2018-09-11T12:08:25.967Z,1014.74
2018-09-11T12:09:25.997Z,1014.73
2018-09-11T12:10:26.019Z,1014.7
2018-09-11T12:11:26.048Z,1014.7
2018-09-11T12:12:26.084Z,1014.61
2018-09-11T12:13:26.102Z,1014.63
2018-09-11T12:14:26.132Z,1014.62
2018-09-11T12:15:26.158Z,1014.62
2018-09-11T12:16:26.190Z,1014.69
2018-09-11T12:17:26.212Z,1014.65
2018-09-11T12:18:26.241Z,1014.59
2018-09-11T12:19:26.269Z,1014.69
2018-09-11T12:20:26.295Z,1014.67
2018-09-11T12:21:26.323Z,1014.67
2018-09-11T12:22:26.351Z,1014.7
2018-09-11T12:23:26.385Z,1014.74
2018-09-11T12:24:26.407Z,1014.7
2018-09-11T12:25:26.512Z,1014.69
2018-09-11T12:26:26.463Z,1014.73
2018-09-11T12:27:26.542Z,1014.74
2018-09-11T12:28:26.521Z,1014.73
2018-09-11T12:29:26.573Z,1014.73
2018-09-11T12:30:26.574Z,1014.68
2018-09-11T12:31:26.601Z,1014.74
2018-09-11T12:32:26.629Z,1014.77
2018-09-11T12:33:26.657Z,1014.68
2018-09-11T12:34:26.685Z,1014.63
2018-09-11T12:35:26.712Z,1014.65
2018-09-11T12:36:26.740Z,1014.64
2018-09-11T12:37:26.768Z,1014.55
2018-09-11T12:38:26.794Z,1014.62
2018-09-11T12:40:26.851Z,1014.62
2018-09-11T12:41:26.882Z,1014.54
2018-09-11T12:42:26.907Z,1014.51
2018-09-11T12:43:26.936Z,1014.55
2018-09-11T12:44:26.962Z,1014.48
2018-09-11T12:45:26.989Z,1014.46
2018-09-11T12:46:27.297Z,1014.41
2018-09-11T12:47:27.570Z,1014.44
2018-09-11T12:48:27.227Z,1014.46